Time;durP1;ratioP1;P1;durP2;ratioP2;P2;SDS_P1;SDS_P2;PMS_P1;PMS_P2;Temp;Humidity;BMP_temperature;BMP_pressure;BME280_temperature;BME280_humidity;BME280_pressure;Samples;Min_cycle;Max_cycle;Signal;HPM_P1;HPM_P2
2023/01/04 00:00:17;;;;;;;3.47;1.10;;;;;;;5.84;100.00;101856.66;6346461;28;20078;-75
2023/01/04 00:03:19;;;;;;;1.20;0.80;;;;;;;5.82;100.00;101861.91;6346801;28;20048;-75
2023/01/04 00:06:21;;;;;;;1.60;0.65;;;;;;;5.79;100.00;101861.94;6346438;28;20388;-75
2023/01/04 00:09:23;;;;;;;2.70;0.82;;;;;;;5.79;100.00;101858.47;6346803;28;20503;-74
2023/01/04 00:12:25;;;;;;;1.00;0.68;;;;;;;5.73;100.00;101843.78;6346073;28;20051;-75
2023/01/04 00:15:26;;;;;;;0.60;0.60;;;;;;;5.73;100.00;101842.94;6346406;28;20043;-75
2023/01/04 00:18:27;;;;;;;0.77;0.63;;;;;;;5.72;100.00;101830.75;6346537;28;20047;-75
2023/01/04 00:21:30;;;;;;;6.93;1.02;;;;;;;5.68;100.00;101814.31;6346409;28;20044;-75
2023/01/04 00:24:32;;;;;;;4.78;0.65;;;;;;;5.71;100.00;101811.63;6346272;28;20047;-75
2023/01/04 00:27:34;;;;;;;2.38;1.02;;;;;;;5.66;100.00;101810.84;6346514;28;20047;-75
2023/01/04 00:30:35;;;;;;;2.78;0.77;;;;;;;5.68;100.00;101811.72;6346342;28;20043;-75
2023/01/04 00:33:37;;;;;;;2.65;0.70;;;;;;;5.66;100.00;101808.25;6346202;28;20407;-75
2023/01/04 00:36:38;;;;;;;1.90;0.85;;;;;;;5.67;100.00;101806.50;6350159;28;20479;-75
2023/01/04 00:39:41;;;;;;;1.80;0.90;;;;;;;5.70;100.00;101804.72;6351290;28;20059;-75
2023/01/04 00:42:42;;;;;;;0.60;0.60;;;;;;;5.74;100.00;101801.16;6351364;28;20060;-75
2023/01/04 00:45:44;;;;;;;0.80;0.80;;;;;;;5.74;100.00;101784.66;6351213;28;20043;-75
2023/01/04 00:48:45;;;;;;;0.68;0.68;;;;;;;5.77;100.00;101774.19;6351302;28;20044;-75
2023/01/04 00:51:46;;;;;;;0.88;0.52;;;;;;;5.72;100.00;101769.06;6350851;28;20044;-75
2023/01/04 00:54:49;;;;;;;4.38;1.27;;;;;;;5.72;100.00;101771.66;6350940;28;20054;-74
2023/01/04 00:57:50;;;;;;;1.95;0.77;;;;;;;5.82;100.00;101762.78;6350918;28;20059;-75
2023/01/04 01:00:51;;;;;;;0.50;0.50;;;;;;;5.76;100.00;101755.03;6350995;28;20510;-75
2023/01/04 01:03:53;;;;;;;1.25;0.60;;;;;;;5.76;100.00;101752.44;6350681;27;20058;-75
2023/01/04 01:06:55;;;;;;;2.08;0.70;;;;;;;5.79;100.00;101751.53;6350553;28;20043;-75
2023/01/04 01:09:57;;;;;;;3.40;1.30;;;;;;;5.78;100.00;101737.63;6350712;28;20062;-75
2023/01/04 01:12:59;;;;;;;0.60;0.40;;;;;;;5.81;100.00;101732.38;6350272;27;20058;-75
2023/01/04 01:16:04;;;;;;;1.85;0.68;;;;;;;5.90;100.00;101723.50;6350763;28;20047;-75
2023/01/04 01:19:05;;;;;;;3.42;0.95;;;;;;;5.93;100.00;101717.41;6350312;28;20051;-75
2023/01/04 01:22:06;;;;;;;3.80;0.70;;;;;;;5.92;100.00;101713.09;6350473;28;20637;-75
2023/01/04 01:25:09;;;;;;;10.80;0.63;;;;;;;5.92;100.00;101700.03;6350271;28;20054;-75
2023/01/04 01:28:10;;;;;;;2.30;0.70;;;;;;;5.99;100.00;101691.19;6350346;28;20047;-75
2023/01/04 01:31:14;;;;;;;4.65;0.80;;;;;;;6.05;100.00;101691.09;6350072;28;20050;-75
2023/01/04 01:34:15;;;;;;;1.48;0.70;;;;;;;6.04;100.00;101676.31;6350036;28;20044;-75
2023/01/04 01:37:17;;;;;;;1.60;0.50;;;;;;;6.15;100.00;101678.72;6350163;28;20044;-74
2023/01/04 01:40:19;;;;;;;0.85;0.52;;;;;;;6.16;100.00;101668.25;6349607;28;20420;-75
2023/01/04 01:43:24;;;;;;;1.98;0.75;;;;;;;6.20;100.00;101661.22;6349831;28;20130;-75
2023/01/04 01:46:31;;;;;;;2.10;0.60;;;;;;;6.29;100.00;101646.22;6349189;28;20134;-75
2023/01/04 01:49:37;;;;;;;1.52;0.40;;;;;;;6.35;100.00;101640.00;6349879;28;20043;-75
2023/01/04 01:52:40;;;;;;;2.35;0.60;;;;;;;6.41;100.00;101620.75;6349400;28;20138;-75
2023/01/04 01:55:45;;;;;;;1.13;0.30;;;;;;;6.51;100.00;101620.50;6349345;28;20562;-75
2023/01/04 01:58:52;;;;;;;0.55;0.47;;;;;;;6.55;100.00;101614.34;6349494;28;20055;-75
2023/01/04 02:01:53;;;;;;;2.67;0.52;;;;;;;6.61;100.00;101610.72;6349556;27;20047;-75
2023/01/04 02:04:55;;;;;;;2.28;0.68;;;;;;;6.64;100.00;101601.97;6349045;28;20040;-75
2023/01/04 02:07:57;;;;;;;0.80;0.57;;;;;;;6.80;100.00;101588.47;6349506;28;20054;-75
2023/01/04 02:10:59;;;;;;;0.77;0.57;;;;;;;6.82;100.00;101596.31;6348995;28;20067;-75
2023/01/04 02:17:35;;;;;;;3.53;1.23;;;;;;;6.80;100.00;101566.72;6349130;28;20055;-75
2023/01/04 02:20:44;;;;;;;0.93;0.63;;;;;;;6.84;100.00;101566.63;6348934;28;20058;-75
2023/01/04 02:24:04;;;;;;;0.95;0.60;;;;;;;6.93;100.00;101559.44;6348782;28;20058;-75
2023/01/04 02:27:36;;;;;;;3.40;0.65;;;;;;;6.93;100.00;101538.53;6349047;28;20055;-75
2023/01/04 02:31:09;;;;;;;0.63;0.50;;;;;;;6.97;100.00;101537.56;6348825;28;20055;-75
2023/01/04 02:34:19;;;;;;;0.85;0.57;;;;;;;7.00;100.00;101521.81;6348481;28;20055;-75
2023/01/04 02:37:33;;;;;;;2.78;1.00;;;;;;;7.04;100.00;101511.25;6348466;28;20402;-75
2023/01/04 02:40:45;;;;;;;3.38;0.57;;;;;;;7.06;100.00;101509.44;6348157;28;20051;-75
2023/01/04 02:47:17;;;;;;;1.85;0.75;;;;;;;6.99;100.00;101502.66;6348356;28;20044;-75
2023/01/04 02:50:30;;;;;;;1.63;0.60;;;;;;;7.00;100.00;101493.94;6348122;27;20078;-75
2023/01/04 02:53:36;;;;;;;2.33;1.05;;;;;;;7.01;100.00;101490.41;6348353;28;20043;-75
2023/01/04 02:56:49;;;;;;;2.33;0.70;;;;;;;7.06;100.00;101478.09;6347722;27;20070;-75
2023/01/04 03:00:13;;;;;;;1.23;0.70;;;;;;;7.02;100.00;101476.44;6347701;28;20052;-75
2023/01/04 03:07:02;;;;;;;2.05;0.70;;;;;;;7.00;100.00;101462.56;6260866;28;20037;-75
2023/01/04 03:10:09;;;;;;;6.45;0.90;;;;;;;7.00;100.00;101448.66;6269736;28;20045;-75
2023/01/04 03:13:17;;;;;;;0.75;0.60;;;;;;;6.98;100.00;101447.81;6346854;28;20047;-75
2023/01/04 03:16:22;;;;;;;5.35;0.98;;;;;;;6.85;100.00;101440.31;6347685;28;20052;-75
2023/01/04 03:36:28;;;;;;;0.85;0.70;;;;;;;6.43;100.00;101371.78;6347125;28;20047;-75
2023/01/04 03:49:56;;;;;;;0.40;0.40;;;;;;;6.32;100.00;101358.19;6346881;28;20044;-76
2023/01/04 03:52:59;;;;;;;0.85;0.68;;;;;;;6.29;100.00;101358.25;6343000;28;20048;-76
2023/01/04 03:56:02;;;;;;;1.85;0.70;;;;;;;6.38;100.00;101357.16;6345675;28;20050;-75
2023/01/04 03:59:04;;;;;;;0.60;0.50;;;;;;;6.43;100.00;101339.63;6343737;28;20047;-76
2023/01/04 04:02:09;;;;;;;2.72;0.43;;;;;;;6.48;100.00;101329.91;6346683;28;20051;-75
2023/01/04 04:08:36;;;;;;;4.70;0.70;;;;;;;6.61;100.00;101299.94;6343878;28;20072;-76
2023/01/04 04:11:37;;;;;;;1.48;1.10;;;;;;;6.61;100.00;101299.94;6346328;28;20048;-76
2023/01/04 04:14:39;;;;;;;0.47;0.43;;;;;;;6.61;100.00;101284.28;6346353;28;20055;-76
2023/01/04 04:17:40;;;;;;;1.50;0.70;;;;;;;6.61;100.00;101281.66;6347004;28;20054;-76
2023/01/04 04:20:42;;;;;;;0.90;0.47;;;;;;;6.65;100.00;101272.84;6346470;28;20515;-75
2023/01/04 04:23:45;;;;;;;1.45;0.57;;;;;;;6.63;100.00;101268.56;6346257;28;20054;-76
2023/01/04 04:26:46;;;;;;;1.42;0.65;;;;;;;6.70;100.00;101267.50;6346586;28;20043;-76
2023/01/04 04:29:48;;;;;;;0.60;0.60;;;;;;;6.74;100.00;101262.13;6346257;28;20047;-76
2023/01/04 04:32:49;;;;;;;6.75;0.82;;;;;;;6.76;100.00;101251.63;6346411;28;20407;-76
2023/01/04 04:35:51;;;;;;;1.42;0.60;;;;;;;6.83;100.00;101251.41;6343288;28;20059;-76
2023/01/04 04:38:53;;;;;;;3.13;0.63;;;;;;;6.90;100.00;101246.84;6346232;28;20069;-76
2023/01/04 04:41:55;;;;;;;1.02;0.80;;;;;;;6.88;100.00;101239.97;6346067;28;20054;-76
2023/01/04 04:44:56;;;;;;;1.65;0.65;;;;;;;6.93;100.00;101227.63;6346496;28;20051;-76
2023/01/04 04:47:58;;;;;;;0.90;0.68;;;;;;;6.98;100.00;101230.94;6346403;28;20051;-76
2023/01/04 04:50:59;;;;;;;1.10;0.47;;;;;;;6.97;100.00;101222.25;6346005;28;20595;-75
2023/01/04 04:54:02;;;;;;;0.80;0.47;;;;;;;7.00;100.00;101208.25;6346186;28;20054;-76
2023/01/04 04:57:03;;;;;;;1.33;0.47;;;;;;;7.08;100.00;101206.22;6345997;28;20050;-75
2023/01/04 05:00:07;;;;;;;1.33;0.40;;;;;;;7.04;100.00;101200.28;6346080;28;20048;-75
2023/01/04 05:03:08;;;;;;;7.00;0.80;;;;;;;7.13;100.00;101188.69;6345890;28;20388;-76
2023/01/04 05:06:10;;;;;;;0.80;0.50;;;;;;;7.14;100.00;101190.38;6345977;28;20052;-75
2023/01/04 05:09:13;;;;;;;2.30;0.70;;;;;;;7.19;100.00;101175.41;6346021;28;20059;-75
2023/01/04 05:15:36;;;;;;;2.58;0.88;;;;;;;7.21;100.00;101165.75;6345869;28;20051;-75
2023/01/04 05:18:37;;;;;;;1.42;0.95;;;;;;;7.19;100.00;101158.88;6345912;28;20040;-75
2023/01/04 05:21:39;;;;;;;0.70;0.50;;;;;;;7.18;100.00;101146.72;6347641;28;20055;-75
2023/01/04 05:24:42;;;;;;;1.90;0.55;;;;;;;7.14;100.00;101140.72;6350678;28;20050;-75
2023/01/04 05:27:43;;;;;;;0.68;0.68;;;;;;;7.15;100.00;101128.50;6350226;28;20414;-76
2023/01/04 05:30:52;;;;;;;1.83;0.60;;;;;;;7.15;100.00;101118.91;6350396;28;20449;-75
2023/01/04 05:33:53;;;;;;;0.90;0.60;;;;;;;7.17;100.00;101109.22;6349950;28;20048;-75
2023/01/04 05:36:54;;;;;;;0.60;0.60;;;;;;;7.21;100.00;101107.38;6350285;28;20048;-75
2023/01/04 05:39:57;;;;;;;0.95;0.60;;;;;;;7.26;100.00;101080.16;6349868;28;20059;-76
2023/01/04 05:42:58;;;;;;;1.27;0.50;;;;;;;7.29;100.00;101076.63;6349779;28;20059;-76
2023/01/04 05:46:00;;;;;;;1.63;0.70;;;;;;;7.31;100.00;101072.16;6349776;28;20058;-76
2023/01/04 05:49:01;;;;;;;1.63;0.68;;;;;;;7.36;100.00;101081.59;6349685;27;20403;-75
2023/01/04 05:52:02;;;;;;;0.65;0.63;;;;;;;7.35;100.00;101066.78;6349755;28;20052;-75
2023/01/04 05:55:06;;;;;;;1.45;0.63;;;;;;;7.43;100.00;101045.59;6349473;28;20051;-76
2023/01/04 05:58:07;;;;;;;0.90;0.70;;;;;;;7.45;100.00;101053.38;6349703;28;20610;-75
2023/01/04 06:01:08;;;;;;;0.50;0.50;;;;;;;7.49;100.00;101047.16;6349480;27;20052;-75
2023/01/04 06:04:10;;;;;;;0.90;0.63;;;;;;;7.50;100.00;101028.81;6349413;28;20051;-75
2023/01/04 06:07:11;;;;;;;0.75;0.50;;;;;;;7.47;100.00;101023.69;6349399;28;20388;-75
2023/01/04 06:10:14;;;;;;;0.50;0.50;;;;;;;7.49;100.00;101027.06;6349379;28;20050;-75
2023/01/04 06:13:15;;;;;;;0.40;0.30;;;;;;;7.54;100.00;101037.38;6349207;28;20051;-75
2023/01/04 06:16:17;;;;;;;2.60;0.60;;;;;;;7.59;100.00;101030.25;6348812;28;20051;-75
2023/01/04 06:19:18;;;;;;;0.80;0.50;;;;;;;7.74;100.00;101031.44;6349223;28;20048;-75
2023/01/04 06:22:20;;;;;;;0.57;0.57;;;;;;;7.74;100.00;101031.44;6348874;28;20127;-75
2023/01/04 06:25:22;;;;;;;0.70;0.60;;;;;;;7.71;100.00;101027.16;6348914;28;20052;-76
2023/01/04 06:28:24;;;;;;;1.20;0.60;;;;;;;7.74;100.00;101021.81;6348873;28;20051;-75
2023/01/04 06:31:25;;;;;;;7.32;1.10;;;;;;;7.79;100.00;101016.41;6348640;28;20054;-75
2023/01/04 06:34:26;;;;;;;1.17;1.05;;;;;;;7.89;100.00;101023.84;6348549;27;20513;-75
2023/01/04 06:37:28;;;;;;;0.65;0.60;;;;;;;7.95;100.00;101016.66;6348844;28;20051;-75
2023/01/04 06:40:31;;;;;;;2.25;0.80;;;;;;;7.97;100.00;101010.47;6348463;28;20047;-75
2023/01/04 06:43:32;;;;;;;0.73;0.70;;;;;;;7.99;100.00;101010.41;6348702;28;20048;-75
2023/01/04 06:46:33;;;;;;;2.78;0.88;;;;;;;8.01;100.00;100998.13;6348210;28;20047;-75
2023/01/04 06:49:34;;;;;;;1.05;0.80;;;;;;;8.10;100.00;101003.88;6348275;27;20495;-75
2023/01/04 06:52:36;;;;;;;0.68;0.65;;;;;;;8.12;100.00;101006.41;6348283;28;20055;-75
2023/01/04 06:55:38;;;;;;;1.55;0.80;;;;;;;8.20;100.00;101009.59;6347984;28;20051;-75
2023/01/04 06:58:40;;;;;;;1.00;0.90;;;;;;;8.26;100.00;101001.47;6348258;28;20048;-75
2023/01/04 07:01:41;;;;;;;1.25;0.75;;;;;;;8.33;100.00;100991.63;6347802;28;20092;-75
2023/01/04 07:04:43;;;;;;;1.25;0.90;;;;;;;8.37;100.00;100998.47;6348071;28;20048;-75
2023/01/04 07:07:44;;;;;;;1.13;0.98;;;;;;;8.47;100.00;100991.09;6347832;28;20047;-75
2023/01/04 07:10:47;;;;;;;1.73;1.23;;;;;;;8.56;100.00;100994.19;6347938;28;20051;-75
2023/01/04 07:13:48;;;;;;;2.30;1.65;;;;;;;8.70;100.00;100980.53;6347432;28;20400;-75
2023/01/04 07:16:49;;;;;;;1.55;1.00;;;;;;;8.66;100.00;100981.56;6347806;28;20047;-75
2023/01/04 07:19:51;;;;;;;1.77;1.38;;;;;;;8.70;100.00;100970.03;6347651;28;20047;-76
2023/01/04 07:22:53;;;;;;;1.25;1.10;;;;;;;8.68;100.00;100965.81;6347557;28;20047;-75
2023/01/04 07:25:55;;;;;;;4.57;1.30;;;;;;;8.80;100.00;101000.19;6347451;28;20051;-75
2023/01/04 07:29:15;;;;;;;1.25;1.15;;;;;;;8.86;100.00;100978.13;6347627;28;20480;-74
2023/01/04 07:32:17;;;;;;;2.92;1.70;;;;;;;8.93;100.00;100962.97;6340328;28;20055;-75
2023/01/04 07:35:18;;;;;;;1.15;1.05;;;;;;;8.95;100.00;100962.00;6347082;28;20054;-75
2023/01/04 07:38:20;;;;;;;1.55;1.10;;;;;;;8.98;100.00;100954.00;6343798;27;20043;-76
2023/01/04 07:41:23;;;;;;;1.95;1.27;;;;;;;8.94;100.00;100972.53;6332766;28;20047;-76
2023/01/04 07:44:26;;;;;;;1.30;1.20;;;;;;;9.01;100.00;100985.31;6333138;28;20044;-76
2023/01/04 07:47:28;;;;;;;2.20;1.60;;;;;;;9.01;100.00;100969.59;6331803;28;20047;-76
2023/01/04 07:50:29;;;;;;;3.15;1.00;;;;;;;9.13;100.00;100970.84;6334236;28;20044;-75
2023/01/04 07:53:32;;;;;;;2.00;1.52;;;;;;;9.12;100.00;100987.47;6331330;28;20056;-75
2023/01/04 07:56:35;;;;;;;2.15;1.50;;;;;;;9.18;100.00;100981.13;6333532;28;20051;-75
2023/01/04 07:59:36;;;;;;;2.50;1.70;;;;;;;9.14;100.00;100975.16;6332285;28;20415;-75
2023/01/04 08:02:38;;;;;;;1.75;1.40;;;;;;;9.19;100.00;100995.94;6332627;27;20050;-75
2023/01/04 08:05:41;;;;;;;3.08;1.90;;;;;;;9.19;100.00;100988.06;6332445;28;20108;-75
2023/01/04 08:08:42;;;;;;;2.22;1.75;;;;;;;9.24;100.00;100986.94;6332126;28;20135;-75
2023/01/04 08:11:45;;;;;;;3.08;1.75;;;;;;;9.23;100.00;100990.50;6332931;28;20055;-75
2023/01/04 08:14:47;;;;;;;2.28;1.63;;;;;;;9.25;100.00;101006.16;6331336;28;20047;-76
2023/01/04 08:17:48;;;;;;;1.88;1.63;;;;;;;9.28;100.00;100995.53;6333479;28;20051;-76
2023/01/04 08:20:49;;;;;;;2.00;1.65;;;;;;;9.25;100.00;100987.78;6331028;28;20490;-76
2023/01/04 08:23:51;;;;;;;3.47;2.00;;;;;;;9.15;100.00;100992.59;6334098;28;20059;-76
2023/01/04 08:26:54;;;;;;;6.15;2.20;;;;;;;9.10;100.00;100992.78;6342696;28;20050;-75
2023/01/04 08:29:55;;;;;;;1.45;1.35;;;;;;;9.04;100.00;100998.31;6335984;28;20062;-75
2023/01/04 08:32:56;;;;;;;2.03;1.55;;;;;;;8.99;100.00;101002.88;6337092;28;20752;-74
2023/01/04 08:36:07;;;;;;;2.83;1.70;;;;;;;8.95;100.00;100993.47;6331335;28;20051;-74
2023/01/04 08:39:09;;;;;;;2.65;1.77;;;;;;;8.96;100.00;100992.53;6346357;28;20043;-75
2023/01/04 08:42:12;;;;;;;1.35;1.23;;;;;;;8.91;100.00;100985.81;6324025;28;20540;-75
2023/01/04 08:45:13;;;;;;;1.75;1.30;;;;;;;8.92;100.00;100987.50;6332884;28;20050;-76
2023/01/04 08:48:14;;;;;;;2.88;1.60;;;;;;;8.95;100.00;100972.50;6321378;28;20048;-76
2023/01/04 08:51:16;;;;;;;1.67;1.25;;;;;;;8.90;100.00;100966.56;6321136;28;20056;-76
2023/01/04 08:54:18;;;;;;;1.48;1.08;;;;;;;8.92;100.00;100950.81;6320667;28;20461;-76
2023/01/04 08:57:20;;;;;;;2.30;1.30;;;;;;;8.90;100.00;100948.22;6324486;28;20048;-76
2023/01/04 09:00:22;;;;;;;1.98;1.23;;;;;;;8.87;100.00;100945.75;6325555;28;20052;-76
2023/01/04 09:03:23;;;;;;;2.22;1.15;;;;;;;8.89;100.00;100929.03;6338757;28;20051;-76
2023/01/04 09:06:25;;;;;;;0.90;0.82;;;;;;;8.89;100.00;100936.03;6325370;28;20055;-76
2023/01/04 09:09:28;;;;;;;0.80;0.80;;;;;;;8.91;100.00;100933.38;6325495;28;20407;-76
2023/01/04 09:12:31;;;;;;;1.48;0.93;;;;;;;8.88;100.00;100916.84;6325473;28;20075;-76
2023/01/04 09:15:33;;;;;;;1.00;0.93;;;;;;;8.88;100.00;100911.59;6325384;28;20052;-76
2023/01/04 09:18:35;;;;;;;0.82;0.82;;;;;;;8.93;100.00;100921.91;6328898;28;20036;-76
2023/01/04 09:21:37;;;;;;;1.95;1.30;;;;;;;9.01;100.00;100917.19;6336190;28;20046;-76
2023/01/04 09:24:38;;;;;;;2.33;1.33;;;;;;;9.00;100.00;100946.94;6338376;28;20410;-76
2023/01/04 09:27:41;;;;;;;2.42;1.30;;;;;;;9.06;100.00;100925.69;6333112;28;20051;-76
2023/01/04 09:30:42;;;;;;;2.05;1.50;;;;;;;9.09;100.00;100916.84;6330072;28;20056;-76
2023/01/04 09:33:44;;;;;;;1.48;1.38;;;;;;;9.09;100.00;100930.81;6327544;28;20051;-75
2023/01/04 09:36:47;;;;;;;2.22;1.75;;;;;;;9.08;100.00;100929.09;6337654;28;20138;-75
2023/01/04 09:39:48;;;;;;;3.67;1.92;;;;;;;9.06;100.00;100911.72;6328909;28;20055;-75
2023/01/04 09:42:52;;;;;;;1.95;1.60;;;;;;;9.03;100.00;100904.84;6350278;28;20078;-76
2023/01/04 09:46:00;;;;;;;1.65;1.50;;;;;;;9.09;100.00;100915.06;6348347;27;20048;-75
2023/01/04 09:49:14;;;;;;;2.88;1.95;;;;;;;9.08;100.00;100925.59;6349786;28;20502;-76
2023/01/04 09:52:20;;;;;;;2.90;2.10;;;;;;;9.11;100.00;100907.97;6345305;28;20047;-75
2023/01/04 09:55:25;;;;;;;2.65;1.70;;;;;;;9.08;100.00;100929.09;6345297;28;20051;-75
2023/01/04 09:58:31;;;;;;;2.38;1.92;;;;;;;9.08;100.00;100918.63;6350000;28;20051;-75
2023/01/04 10:01:41;;;;;;;4.07;2.58;;;;;;;9.13;100.00;100903.53;6349408;28;20047;-75
2023/01/04 10:04:46;;;;;;;2.97;2.30;;;;;;;9.14;100.00;100909.63;6349566;28;20441;-75
2023/01/04 10:07:47;;;;;;;4.07;1.83;;;;;;;9.15;100.00;100908.69;6349431;28;20049;-75
2023/01/04 10:11:01;;;;;;;3.03;1.75;;;;;;;9.09;100.00;100914.22;6349517;28;20048;-75
2023/01/04 10:14:17;;;;;;;2.53;1.50;;;;;;;9.14;100.00;100899.97;6349146;28;20060;-75
2023/01/04 10:17:33;;;;;;;2.08;1.45;;;;;;;9.11;100.00;100888.78;6349354;28;20493;-75
2023/01/04 10:20:51;;;;;;;2.20;1.60;;;;;;;9.10;100.00;100889.69;6347114;28;20680;-75
2023/01/04 10:24:03;;;;;;;1.30;1.00;;;;;;;9.13;100.00;100894.81;6323745;28;20048;-75
2023/01/04 10:27:08;;;;;;;1.80;1.33;;;;;;;9.17;100.00;100879.78;6323627;28;20495;-75
2023/01/04 10:30:24;;;;;;;1.33;1.20;;;;;;;9.13;100.00;100879.94;6323600;28;20726;-75
2023/01/04 10:33:36;;;;;;;1.17;1.08;;;;;;;9.17;100.00;100879.78;6323465;28;20054;-75
2023/01/04 10:36:38;;;;;;;1.13;1.02;;;;;;;9.21;100.00;100866.44;6323423;28;20052;-75
2023/01/04 10:39:40;;;;;;;1.48;1.02;;;;;;;9.22;100.00;100876.03;6322959;28;20419;-75
2023/01/04 10:42:53;;;;;;;2.47;1.23;;;;;;;9.27;100.00;100873.22;6323258;28;20059;-75
2023/01/04 10:46:02;;;;;;;2.63;1.13;;;;;;;9.32;100.00;100871.22;6323075;28;20407;-74
2023/01/04 10:49:09;;;;;;;1.75;0.90;;;;;;;9.34;100.00;100872.00;6323130;28;20075;-74
2023/01/04 10:52:16;;;;;;;1.00;0.80;;;;;;;9.40;100.00;100848.09;6323251;28;20048;-73
2023/01/04 10:55:24;;;;;;;1.13;1.00;;;;;;;9.38;100.00;100855.19;6322875;28;20112;-74
2023/01/04 10:58:31;;;;;;;4.93;1.38;;;;;;;9.45;100.00;100850.50;6323160;28;20124;-75
2023/01/04 11:01:38;;;;;;;1.88;1.13;;;;;;;9.45;100.00;100834.75;6322918;28;20055;-75
2023/01/04 11:04:44;;;;;;;2.47;1.10;;;;;;;9.49;100.00;100846.81;6322899;28;20052;-74
2023/01/04 11:07:52;;;;;;;1.48;0.75;;;;;;;9.50;100.00;100838.03;6322812;28;20056;-75
2023/01/04 11:10:57;;;;;;;0.70;0.70;;;;;;;9.46;100.00;100828.63;6322762;28;20052;-74
2023/01/04 11:13:59;;;;;;;1.30;0.95;;;;;;;9.47;100.00;100832.94;6322312;28;20055;-74
2023/01/04 11:17:04;;;;;;;1.63;0.95;;;;;;;9.46;100.00;100831.25;6327857;28;20130;-74
2023/01/04 11:20:06;;;;;;;2.05;1.13;;;;;;;9.52;100.00;100828.31;6344774;28;20065;-74
2023/01/04 11:23:13;;;;;;;1.02;0.93;;;;;;;9.52;100.00;100829.16;6346759;28;20055;-74
2023/01/04 11:26:19;;;;;;;0.98;0.88;;;;;;;9.55;100.00;100813.28;6347167;28;20134;-75
2023/01/04 11:29:31;;;;;;;3.08;1.02;;;;;;;9.48;100.00;100835.47;6342320;28;20487;-74
2023/01/04 11:32:39;;;;;;;1.25;0.90;;;;;;;9.50;100.00;100815.28;6333859;28;20728;-74
2023/01/04 11:35:42;;;;;;;0.65;0.65;;;;;;;9.56;100.00;100801.00;6338734;28;20395;-75
2023/01/04 11:38:55;;;;;;;0.70;0.70;;;;;;;9.56;100.00;100798.38;6347246;28;20043;-74
2023/01/04 11:41:58;;;;;;;4.25;1.40;;;;;;;9.65;100.00;100797.94;6346842;28;20085;-75
2023/01/04 11:45:00;;;;;;;1.40;1.00;;;;;;;9.61;100.00;100799.84;6341369;28;20068;-75
2023/01/04 11:48:05;;;;;;;1.20;1.10;;;;;;;9.63;100.00;100791.94;6321785;28;20047;-75
2023/01/04 11:51:17;;;;;;;0.57;0.57;;;;;;;9.64;100.00;100785.75;6321796;28;20058;-75
2023/01/04 11:54:19;;;;;;;0.70;0.70;;;;;;;9.65;100.00;100776.94;6321356;28;20515;-73
2023/01/04 11:57:21;;;;;;;1.00;0.90;;;;;;;9.69;100.00;100783.75;6321752;28;20059;-74
2023/01/04 12:00:23;;;;;;;0.68;0.60;;;;;;;9.68;100.00;100774.19;6323827;28;20483;-74
2023/01/04 12:03:29;;;;;;;1.67;1.05;;;;;;;9.69;100.00;100775.03;6331630;28;20044;-74
2023/01/04 12:06:38;;;;;;;1.08;0.93;;;;;;;9.77;100.00;100760.59;6337476;28;20415;-76
2023/01/04 12:09:39;;;;;;;1.40;0.70;;;;;;;9.78;100.00;100756.22;6337312;28;20044;-75
2023/01/04 12:12:41;;;;;;;0.63;0.63;;;;;;;9.75;100.00;100762.44;6331552;28;20051;-75
2023/01/04 12:15:54;;;;;;;1.33;1.00;;;;;;;9.77;100.00;100754.50;6331889;28;20044;-75
2023/01/04 12:18:57;;;;;;;1.45;1.20;;;;;;;9.81;100.00;100751.66;6342836;28;20410;-75
2023/01/04 12:22:01;;;;;;;1.35;1.10;;;;;;;9.81;100.00;100756.91;6346803;28;20067;-75
2023/01/04 12:25:06;;;;;;;0.70;0.70;;;;;;;9.82;100.00;100742.00;6346384;28;20044;-75
2023/01/04 12:28:28;;;;;;;2.30;1.20;;;;;;;9.91;100.00;100749.41;6346886;28;20048;-75
2023/01/04 12:31:32;;;;;;;1.13;1.00;;;;;;;9.93;100.00;100739.69;6350150;28;20048;-74
2023/01/04 12:34:43;;;;;;;0.80;0.80;;;;;;;9.95;100.00;100729.97;6351832;27;20056;-75
2023/01/04 12:37:48;;;;;;;1.15;0.98;;;;;;;9.99;100.00;100728.00;6341204;28;20055;-75
2023/01/04 12:40:54;;;;;;;2.25;1.50;;;;;;;10.00;100.00;100743.69;6326255;28;20501;-75
2023/01/04 12:43:55;;;;;;;1.35;1.25;;;;;;;10.02;100.00;100736.59;6325823;28;20574;-74
2023/01/04 12:50:19;;;;;;;2.00;1.80;;;;;;;10.08;100.00;100725.78;6325792;28;20040;-75
2023/01/04 12:53:51;;;;;;;2.22;1.50;;;;;;;10.09;100.00;100732.72;6326238;28;20041;-75
2023/01/04 12:57:23;;;;;;;2.58;1.75;;;;;;;10.10;100.00;100723.91;6325877;28;20048;-75
2023/01/04 13:00:59;;;;;;;3.03;2.17;;;;;;;10.15;100.00;100734.19;6325595;28;20192;-74
2023/01/04 13:04:24;;;;;;;2.22;1.90;;;;;;;10.24;100.00;100712.72;6325145;28;20127;-75
2023/01/04 13:07:29;;;;;;;3.47;1.98;;;;;;;10.31;100.00;100705.34;6339830;28;20048;-76
2023/01/04 13:10:34;;;;;;;2.10;1.90;;;;;;;10.36;100.00;100722.59;6350775;28;20112;-75
2023/01/04 13:13:42;;;;;;;2.45;2.17;;;;;;;10.45;100.00;100695.00;6350733;28;20414;-76
2023/01/04 13:16:50;;;;;;;2.25;1.80;;;;;;;10.47;100.00;100705.41;6350734;28;20047;-76
2023/01/04 13:19:53;;;;;;;3.08;2.20;;;;;;;10.48;100.00;100699.22;6350495;28;20048;-75
2023/01/04 13:22:58;;;;;;;2.10;1.90;;;;;;;10.47;100.00;100690.47;6350495;28;20138;-75
2023/01/04 13:26:27;;;;;;;2.90;2.15;;;;;;;10.51;100.00;100692.03;6350220;28;20509;-76
2023/01/04 13:29:29;;;;;;;;;;;;;;;10.54;100.00;100683.13;6351124;28;20040;-76
2023/01/04 13:32:33;;;;;;;1.80;1.70;;;;;;;10.50;100.00;100682.44;6350004;28;19919;-74
2023/01/04 13:35:35;;;;;;;2.38;1.85;;;;;;;10.52;100.00;100683.19;6350068;28;20099;-75
2023/01/04 13:38:40;;;;;;;1.67;1.58;;;;;;;10.49;100.00;100664.13;6345751;22;20464;-75
2023/01/04 13:41:45;;;;;;;4.60;2.63;;;;;;;10.48;100.00;100670.31;6254183;28;20060;-76
2023/01/04 13:45:15;;;;;;;2.70;2.05;;;;;;;10.49;100.00;100664.13;6272016;28;20049;-76
2023/01/04 13:48:20;;;;;;;3.25;2.10;;;;;;;10.47;100.00;100644.97;6258530;28;20505;-74
2023/01/04 13:51:28;;;;;;;2.97;2.50;;;;;;;10.46;100.00;100651.16;6249747;28;20056;-75
2023/01/04 13:54:29;;;;;;;2.67;2.00;;;;;;;10.47;100.00;100648.44;6249716;28;20059;-75
2023/01/04 13:57:30;;;;;;;2.17;1.98;;;;;;;10.46;100.00;100646.75;6249899;28;20053;-75
2023/01/04 14:00:35;;;;;;;2.58;2.20;;;;;;;10.51;100.00;100654.38;6249286;28;20429;-74
2023/01/04 14:03:40;;;;;;;3.10;2.28;;;;;;;10.48;100.00;100644.03;6249633;28;20053;-74
2023/01/04 14:06:46;;;;;;;2.47;2.20;;;;;;;10.50;100.00;100629.06;6249554;28;20050;-73
2023/01/04 14:09:52;;;;;;;4.03;2.40;;;;;;;10.60;100.00;100619.72;6249358;28;20046;-74
2023/01/04 14:12:54;;;;;;;3.72;1.45;;;;;;;10.66;100.00;100614.13;6249403;28;20052;-74
2023/01/04 14:16:10;;;;;;;2.20;2.00;;;;;;;10.73;100.00;100609.38;6248966;28;20489;-74
2023/01/04 14:19:43;;;;;;;2.13;1.75;;;;;;;10.74;100.00;100600.56;6249055;28;20054;-75
2023/01/04 14:22:54;;;;;;;2.38;1.75;;;;;;;10.81;100.00;100607.16;6245139;28;20049;-75
2023/01/04 14:25:56;;;;;;;1.58;1.48;;;;;;;10.84;100.00;100606.97;6249009;28;20049;-75
2023/01/04 14:28:57;;;;;;;1.30;1.20;;;;;;;10.92;100.00;100592.47;6249058;28;20579;-75
2023/01/04 14:32:02;;;;;;;1.10;1.00;;;;;;;10.98;100.00;100587.78;6248818;28;20061;-74
2023/01/04 14:35:11;;;;;;;1.42;1.20;;;;;;;11.02;100.00;100587.53;6249117;28;20519;-75
2023/01/04 14:38:18;;;;;;;1.02;0.80;;;;;;;11.12;100.00;100580.78;6272225;28;20049;-75
2023/01/04 14:41:22;;;;;;;0.93;0.70;;;;;;;11.16;100.00;100592.81;6271454;28;20049;-75
2023/01/04 14:44:27;;;;;;;2.30;1.08;;;;;;;11.17;100.00;100607.69;6272869;28;20044;-74
2023/01/04 14:47:28;;;;;;;0.50;0.50;;;;;;;11.21;100.00;100610.13;6273480;28;20055;-75
2023/01/04 14:50:29;;;;;;;0.75;0.68;;;;;;;11.18;100.00;100598.84;6273078;28;20049;-75
2023/01/04 14:53:32;;;;;;;3.67;0.70;;;;;;;11.12;100.00;100619.41;6272015;28;20056;-75
2023/01/04 14:56:34;;;;;;;0.65;0.52;;;;;;;11.15;100.00;100627.13;6272307;28;20057;-76
2023/01/04 14:59:35;;;;;;;2.30;0.50;;;;;;;11.12;100.00;100650.94;6269547;28;20048;-76
2023/01/04 15:02:37;;;;;;;2.88;0.77;;;;;;;10.96;100.00;100656.25;6272733;28;20049;-74
2023/01/04 15:05:46;;;;;;;1.05;0.60;;;;;;;10.88;100.00;100655.81;6270707;28;20049;-74